Terminal Aerodrome Forecast
Issued by NWS Bismarck, ND

Home | Current Version | Previous Version | Text Only | Print | Product List | Glossary Off
Versions: 1 2 3 4 5 6 7 8 9 10 11 12 13 14 15

000
FTUS43 KBIS 102300
TAFISN
TAF
KISN 102339Z 1100/1124 17007KT P6SM VCTS SCT070CB
     FM110100 35011KT P6SM VCTS SCT070CB
     FM110300 34007KT P6SM SKC=

USA.gov is the U.S. government's official web portal to all federal, state and local government web resources and services.